ダラス/フォートワース の空港の天気 - METARとTAF

ダラス・フォートワース国際空港 ( KDFW / DFW ) - アメリカ テキサス州ダラス & フォートワース
飛行場実況気象(Metar)
観測時間08/04 13:53 CDT (08/04 18:53 UTC)
風向・風速不定 2m/s
視程10km以上
天気現象
全天の4割程度の雲 雲底高度 1400m
気温31.7℃
湿度47%
気圧1016.6hPa
METARKDFW 041853Z VRB04KT 8SM SCT046 32/19 A3005 RMK AO2 SLP166 T03170189
過去の天気等 Google飛行場航空写真 Wunderground天気予報

過去48時間のMETAR

飛行場予報(TAF)
発表時間: 8/04 12:33 CDT (8/04 17:33 UTC)
予報対象時間: 4日13時 CDT ~ 5日19時 CDT
風向・風速南東 3m/s
視程10km以上
全天の4割程度の雲 雲底高度 1220m
4日22時 CDT から
風向・風速南南東 2m/s
視程10km以上
全天の4割程度の雲 雲底高度 3050m
5日17時 CDT から
風向・風速南 4m/s
視程10km以上
天気現象周辺で雷
全天の4割程度の積乱雲 雲底高度 1220m
KDFW 041733Z 0418/0524 14005KT P6SM SCT040
FM050300 16004KT P6SM SCT100
FM052200 17007KT P6SM VCTS SCT040CB